createdAt,value
2022-11-05T00:00:32.250Z,12.36
2022-11-05T00:03:28.063Z,12.35
2022-11-05T00:06:13.908Z,12.37
2022-11-05T00:09:00.142Z,12.37
2022-11-05T00:11:46.197Z,12.37
2022-11-05T00:14:32.918Z,12.37
2022-11-05T00:17:01.524Z,12.33
2022-11-05T00:19:29.077Z,12.33
2022-11-05T00:22:14.637Z,12.30
2022-11-05T00:25:00.790Z,12.28
2022-11-05T00:27:27.828Z,12.24
2022-11-05T00:29:55.601Z,12.18
2022-11-05T00:32:22.768Z,12.22
2022-11-05T00:34:50.052Z,12.16
2022-11-05T00:37:17.149Z,12.18
2022-11-05T00:39:44.651Z,12.20
2022-11-05T00:42:30.307Z,12.17
2022-11-05T00:45:03.870Z,12.20
2022-11-05T00:47:50.915Z,12.21
2022-11-05T00:50:20.780Z,12.23
2022-11-05T00:52:55.824Z,12.24
2022-11-05T00:55:24.141Z,12.29
2022-11-05T00:57:51.563Z,12.30
2022-11-05T01:00:19.041Z,12.30
2022-11-05T01:02:46.936Z,12.34
2022-11-05T01:05:14.940Z,12.34
2022-11-05T01:07:41.966Z,12.39
2022-11-05T01:10:09.861Z,12.41
2022-11-05T01:12:36.922Z,12.43
2022-11-05T01:15:05.016Z,12.46
2022-11-05T01:17:32.042Z,12.47
2022-11-05T01:19:59.329Z,12.50
2022-11-05T01:22:26.306Z,12.50
2022-11-05T01:24:53.947Z,12.49
2022-11-05T01:27:20.997Z,12.49
2022-11-05T01:29:48.307Z,12.50
2022-11-05T01:32:15.299Z,12.53
2022-11-05T01:34:42.574Z,12.54
2022-11-05T01:37:09.518Z,12.56
2022-11-05T01:39:36.968Z,12.58
2022-11-05T01:42:05.610Z,12.60
2022-11-05T01:44:57.077Z,12.58
2022-11-05T01:47:44.560Z,12.58
2022-11-05T01:50:20.883Z,12.61
2022-11-05T01:52:50.347Z,12.60
2022-11-05T01:55:24.484Z,12.57
2022-11-05T01:57:54.910Z,12.52
2022-11-05T02:00:22.397Z,12.59
2022-11-05T02:02:49.637Z,12.57
2022-11-05T02:05:17.880Z,12.57
2022-11-05T02:07:47.249Z,12.56
2022-11-05T02:10:18.039Z,12.60
2022-11-05T02:12:47.883Z,12.60
2022-11-05T02:15:24.177Z,12.60
2022-11-05T02:17:53.864Z,12.62
2022-11-05T02:20:25.390Z,12.63
2022-11-05T02:23:04.554Z,12.64
2022-11-05T02:25:34.795Z,12.61
2022-11-05T02:28:26.777Z,12.62
2022-11-05T02:31:09.467Z,12.60
2022-11-05T02:33:48.271Z,12.58
2022-11-05T02:36:28.732Z,12.62
2022-11-05T02:39:07.927Z,12.61
2022-11-05T02:41:47.926Z,12.60
2022-11-05T02:44:39.799Z,12.60
2022-11-05T02:47:51.357Z,12.59
2022-11-05T02:50:35.443Z,12.58
2022-11-05T02:53:19.986Z,12.57
2022-11-05T02:55:53.944Z,12.59
2022-11-05T02:58:22.148Z,12.55
2022-11-05T03:00:55.229Z,12.57
2022-11-05T03:03:27.952Z,12.61
2022-11-05T03:06:06.941Z,12.60
2022-11-05T03:08:34.681Z,12.61
2022-11-05T03:11:16.268Z,12.61
2022-11-05T03:14:03.689Z,12.61
2022-11-05T03:16:42.329Z,12.64
2022-11-05T03:19:54.871Z,12.61
2022-11-05T03:22:30.582Z,12.64
2022-11-05T03:25:03.138Z,12.66
2022-11-05T03:27:33.700Z,12.68
2022-11-05T03:30:07.069Z,12.68
2022-11-05T03:32:39.325Z,12.70
2022-11-05T03:35:15.145Z,12.73
2022-11-05T03:37:45.406Z,12.72
2022-11-05T03:40:17.010Z,12.72
2022-11-05T03:42:49.528Z,12.70
2022-11-05T03:45:22.570Z,12.72
2022-11-05T03:47:56.273Z,12.73
2022-11-05T03:50:40.032Z,12.75
2022-11-05T03:53:28.526Z,12.73
2022-11-05T03:56:10.592Z,12.75
2022-11-05T03:58:45.182Z,12.73
2022-11-05T04:01:12.867Z,12.76
2022-11-05T04:03:39.923Z,12.76
2022-11-05T04:06:28.257Z,12.79
2022-11-05T04:09:14.178Z,12.75
2022-11-05T04:12:00.423Z,12.73
2022-11-05T04:14:27.506Z,12.72
2022-11-05T04:17:07.172Z,12.73
2022-11-05T04:19:54.223Z,12.74
2022-11-05T04:22:41.037Z,12.73
2022-11-05T04:25:08.893Z,12.77
2022-11-05T04:27:36.920Z,12.74
2022-11-05T04:30:20.797Z,12.72
2022-11-05T04:33:11.994Z,12.72
2022-11-05T04:35:40.539Z,12.71
2022-11-05T04:38:14.864Z,12.73
2022-11-05T04:40:42.347Z,12.67
2022-11-05T04:43:15.165Z,12.69
2022-11-05T04:45:43.101Z,12.70
2022-11-05T04:48:11.965Z,12.72
2022-11-05T04:50:39.506Z,12.68
2022-11-05T04:53:07.467Z,12.67
2022-11-05T04:55:34.532Z,12.66
2022-11-05T04:58:01.965Z,12.68
2022-11-05T05:00:28.996Z,12.70
2022-11-05T05:02:56.950Z,12.71
2022-11-05T05:05:24.282Z,12.72
2022-11-05T05:07:52.459Z,12.74
2022-11-05T05:10:20.975Z,12.75
2022-11-05T05:12:48.817Z,12.79
2022-11-05T05:15:15.943Z,12.77
2022-11-05T05:17:43.881Z,12.79
2022-11-05T05:20:35.243Z,12.77
2022-11-05T05:23:21.308Z,12.77
2022-11-05T05:25:53.011Z,12.78
2022-11-05T05:28:21.721Z,12.75
2022-11-05T05:30:49.384Z,12.77
2022-11-05T05:33:16.430Z,12.69
2022-11-05T05:35:43.749Z,12.72
2022-11-05T05:38:11.969Z,12.71
2022-11-05T05:40:39.788Z,12.69
2022-11-05T05:43:13.911Z,12.67
2022-11-05T05:48:29.074Z,12.71
2022-11-05T05:51:17.487Z,12.70
2022-11-05T05:53:49.150Z,12.72
2022-11-05T05:56:19.418Z,12.68
2022-11-05T05:58:47.312Z,12.75
2022-11-05T06:01:20.118Z,12.77
2022-11-05T06:06:58.571Z,12.75
2022-11-05T06:09:28.971Z,12.78
2022-11-05T06:11:58.184Z,12.77
2022-11-05T06:14:28.414Z,12.84
2022-11-05T06:17:04.089Z,12.81
2022-11-05T06:19:31.095Z,12.80
2022-11-05T06:21:58.421Z,12.88
2022-11-05T06:24:25.392Z,12.90
2022-11-05T06:26:52.725Z,12.82
2022-11-05T06:29:19.682Z,12.85
2022-11-05T06:31:47.042Z,12.92
2022-11-05T06:34:13.967Z,12.89
2022-11-05T06:36:41.315Z,12.93
2022-11-05T06:39:12.588Z,12.98
2022-11-05T06:42:04.146Z,12.98
2022-11-05T06:44:27.907Z,13.01
2022-11-05T06:46:55.293Z,13.00
2022-11-05T06:49:24.784Z,13.03
2022-11-05T06:51:52.951Z,13.01
2022-11-05T06:54:20.073Z,13.00
2022-11-05T06:56:47.525Z,13.01
2022-11-05T06:59:14.881Z,12.96
2022-11-05T07:01:42.433Z,13.01
2022-11-05T07:04:16.023Z,12.96
2022-11-05T07:06:44.955Z,13.03
2022-11-05T07:09:12.087Z,13.01
2022-11-05T07:11:39.667Z,13.08
2022-11-05T07:14:06.741Z,13.05
2022-11-05T07:16:35.378Z,13.06
2022-11-05T07:19:03.046Z,13.11
2022-11-05T07:21:40.461Z,13.10
2022-11-05T07:24:08.229Z,13.11
2022-11-05T07:26:35.873Z,13.23
2022-11-05T07:29:03.040Z,13.26
2022-11-05T07:31:30.531Z,13.25
2022-11-05T07:33:59.267Z,13.26
2022-11-05T07:36:26.865Z,13.27
2022-11-05T07:38:58.943Z,13.25
2022-11-05T07:41:28.138Z,13.28
2022-11-05T07:43:55.252Z,13.28
2022-11-05T07:46:25.972Z,13.36
2022-11-05T07:48:53.024Z,13.38
2022-11-05T07:51:20.455Z,13.36
2022-11-05T07:53:48.635Z,13.41
2022-11-05T07:56:16.780Z,13.40
2022-11-05T07:58:46.792Z,13.45
2022-11-05T08:01:16.935Z,13.40
2022-11-05T08:03:46.443Z,13.38
2022-11-05T08:06:18.291Z,13.37
2022-11-05T08:08:45.575Z,13.42
2022-11-05T08:11:16.980Z,13.39
2022-11-05T08:13:44.186Z,13.41
2022-11-05T08:16:12.194Z,13.41
2022-11-05T08:18:48.121Z,13.40
2022-11-05T08:21:15.597Z,13.38
2022-11-05T08:23:43.137Z,13.42
2022-11-05T08:26:11.785Z,13.40
2022-11-05T08:28:39.216Z,13.40
2022-11-05T08:31:08.072Z,13.47
2022-11-05T08:33:37.458Z,13.49
2022-11-05T08:36:06.857Z,13.45
2022-11-05T08:38:40.442Z,13.50
2022-11-05T08:41:18.715Z,13.52
2022-11-05T08:43:47.751Z,13.56
2022-11-05T08:46:16.494Z,13.59
2022-11-05T08:48:45.401Z,13.59
2022-11-05T08:53:57.970Z,13.62
2022-11-05T08:56:25.317Z,13.68
2022-11-05T08:58:52.482Z,13.68
2022-11-05T09:01:30.669Z,13.70
2022-11-05T09:04:00.669Z,13.74
2022-11-05T09:06:40.885Z,13.82
2022-11-05T09:09:08.335Z,13.81
2022-11-05T09:11:57.449Z,13.90
2022-11-05T09:14:23.156Z,13.93
2022-11-05T09:16:50.584Z,13.99
2022-11-05T09:19:17.618Z,14.08
2022-11-05T09:21:45.085Z,14.12
2022-11-05T09:24:12.545Z,14.21
2022-11-05T09:26:40.131Z,14.24
2022-11-05T09:29:13.155Z,14.28
2022-11-05T09:31:42.073Z,14.29
2022-11-05T09:34:10.905Z,14.37
2022-11-05T09:36:38.323Z,14.37
2022-11-05T09:39:05.638Z,14.42
2022-11-05T09:41:39.005Z,14.45
2022-11-05T09:44:14.732Z,14.48
2022-11-05T09:46:52.205Z,14.58
2022-11-05T09:49:33.481Z,14.63
2022-11-05T09:52:02.544Z,14.70
2022-11-05T09:54:36.523Z,14.75
2022-11-05T09:57:14.105Z,14.78
2022-11-05T10:00:10.418Z,14.86
2022-11-05T10:03:16.582Z,14.93
2022-11-05T10:05:49.240Z,14.94
2022-11-05T10:08:29.248Z,14.97
2022-11-05T10:11:30.586Z,15.09
2022-11-05T10:14:06.936Z,15.17
2022-11-05T10:16:37.920Z,15.22
2022-11-05T10:19:22.163Z,15.29
2022-11-05T10:22:10.191Z,15.37
2022-11-05T10:24:50.581Z,15.44
2022-11-05T10:27:38.397Z,15.60
2022-11-05T10:30:07.561Z,15.70
2022-11-05T10:32:37.538Z,15.73
2022-11-05T10:35:08.653Z,15.64
2022-11-05T10:37:40.672Z,15.61
2022-11-05T10:40:50.096Z,15.57
2022-11-05T10:43:25.191Z,15.51
2022-11-05T10:46:30.195Z,15.48
2022-11-05T10:49:03.201Z,15.56
2022-11-05T10:51:31.982Z,15.64
2022-11-05T10:54:05.595Z,15.65
2022-11-05T10:56:38.804Z,15.61
2022-11-05T10:59:19.162Z,15.61
2022-11-05T11:01:46.894Z,15.65
2022-11-05T11:04:22.436Z,15.65
2022-11-05T11:12:49.954Z,15.86
2022-11-05T11:15:28.187Z,15.98
2022-11-05T11:17:57.275Z,16.08
2022-11-05T11:20:35.665Z,16.20
2022-11-05T11:23:15.786Z,16.30
2022-11-05T11:25:52.308Z,16.34
2022-11-05T11:28:29.881Z,16.39
2022-11-05T11:31:22.548Z,16.61
2022-11-05T11:34:01.764Z,16.63
2022-11-05T11:36:35.416Z,16.50
2022-11-05T11:39:06.091Z,16.42
2022-11-05T11:41:43.093Z,16.33
2022-11-05T11:44:18.839Z,16.23
2022-11-05T11:46:51.264Z,16.19
2022-11-05T11:49:48.914Z,16.25
2022-11-05T11:52:27.057Z,16.37
2022-11-05T11:58:22.250Z,16.83
2022-11-05T12:01:07.635Z,16.84
2022-11-05T12:03:43.037Z,16.85
2022-11-05T12:06:29.846Z,16.89
2022-11-05T12:09:20.172Z,16.97
2022-11-05T12:12:16.236Z,17.04
2022-11-05T12:14:51.042Z,16.79
2022-11-05T12:17:23.984Z,16.56
2022-11-05T12:20:18.791Z,16.46
2022-11-05T12:23:01.197Z,16.33
2022-11-05T12:25:51.097Z,16.23
2022-11-05T12:28:36.185Z,16.17
2022-11-05T12:31:31.199Z,16.12
2022-11-05T12:34:25.042Z,16.02
2022-11-05T12:37:32.846Z,16.03
2022-11-05T12:40:20.770Z,16.02
2022-11-05T12:43:01.156Z,16.04
2022-11-05T12:45:51.784Z,16.02
2022-11-05T12:48:38.571Z,15.96
2022-11-05T12:51:29.105Z,15.93
2022-11-05T12:54:11.653Z,15.92
2022-11-05T12:56:50.093Z,15.82
2022-11-05T12:59:17.033Z,15.75
2022-11-05T13:01:50.333Z,15.67
2022-11-05T13:04:41.979Z,15.64
2022-11-05T13:07:15.340Z,15.61
2022-11-05T13:10:24.239Z,15.62
2022-11-05T13:13:07.877Z,15.56
2022-11-05T13:15:45.496Z,15.61
2022-11-05T13:18:18.398Z,15.62
2022-11-05T13:20:53.803Z,15.52
2022-11-05T13:23:22.412Z,15.57
2022-11-05T13:26:08.362Z,15.50
2022-11-05T13:29:01.165Z,15.45
2022-11-05T13:31:33.361Z,15.42
2022-11-05T13:34:13.175Z,15.42
2022-11-05T13:37:12.858Z,15.36
2022-11-05T13:40:09.215Z,15.34
2022-11-05T13:46:05.353Z,15.26
2022-11-05T13:48:50.934Z,15.24
2022-11-05T13:51:32.461Z,15.22
2022-11-05T13:54:03.527Z,15.18
2022-11-05T13:56:54.063Z,15.15
2022-11-05T13:59:26.924Z,15.13
2022-11-05T14:01:58.674Z,15.11
2022-11-05T14:04:38.149Z,15.06
2022-11-05T14:07:23.477Z,15.02
2022-11-05T14:09:58.765Z,15.01
2022-11-05T14:12:30.940Z,14.88
2022-11-05T14:15:34.885Z,14.87
2022-11-05T14:18:44.136Z,14.78
2022-11-05T14:25:31.953Z,14.58
2022-11-05T14:27:59.359Z,14.50
2022-11-05T14:30:59.671Z,14.45
2022-11-05T14:33:26.915Z,14.38
2022-11-05T14:36:22.108Z,14.31
2022-11-05T14:39:26.827Z,14.25
2022-11-05T14:42:20.009Z,14.18
2022-11-05T14:45:05.997Z,14.12
2022-11-05T14:47:39.348Z,14.06
2022-11-05T14:50:39.280Z,13.94
2022-11-05T14:53:35.159Z,14.00
2022-11-05T15:04:00.093Z,13.82
2022-11-05T15:06:46.833Z,13.73
2022-11-05T15:09:37.348Z,13.71
2022-11-05T15:12:10.844Z,13.69
2022-11-05T15:14:58.177Z,13.64
2022-11-05T15:18:01.760Z,13.54
2022-11-05T15:20:45.789Z,13.51
2022-11-05T15:23:25.926Z,13.45
2022-11-05T15:26:29.426Z,13.43
2022-11-05T15:33:06.109Z,13.28
2022-11-05T15:38:34.237Z,13.24
2022-11-05T15:41:18.762Z,13.25
2022-11-05T15:43:55.647Z,13.17
2022-11-05T15:46:28.465Z,13.19
2022-11-05T15:49:07.136Z,13.11
2022-11-05T15:51:36.268Z,13.09
2022-11-05T15:56:56.742Z,13.01
2022-11-05T15:59:29.016Z,13.00
2022-11-05T16:02:19.008Z,13.00
2022-11-05T16:04:50.791Z,12.92
2022-11-05T16:07:18.911Z,12.90
2022-11-05T16:09:57.119Z,12.92
2022-11-05T16:12:32.594Z,12.90
2022-11-05T16:15:15.304Z,12.85
2022-11-05T16:17:57.633Z,12.78
2022-11-05T16:20:35.826Z,12.78
2022-11-05T16:23:25.924Z,12.65
2022-11-05T16:27:02.404Z,12.68
2022-11-05T16:29:57.462Z,12.51
2022-11-05T16:32:31.017Z,12.49
2022-11-05T16:35:22.810Z,12.40
2022-11-05T16:38:04.862Z,12.30
2022-11-05T16:41:05.409Z,12.18
2022-11-05T16:43:41.070Z,12.04
2022-11-05T16:46:13.479Z,11.98
2022-11-05T16:48:41.206Z,11.92
2022-11-05T16:51:27.486Z,11.85
2022-11-05T16:54:10.450Z,11.78
2022-11-05T16:57:00.385Z,11.72
2022-11-05T16:59:35.797Z,11.66
2022-11-05T17:02:11.431Z,11.61
2022-11-05T17:04:41.087Z,11.62
2022-11-05T17:07:13.532Z,11.50
2022-11-05T17:13:02.296Z,11.48
2022-11-05T17:15:51.953Z,11.43
2022-11-05T17:18:19.646Z,11.35
2022-11-05T17:20:53.013Z,11.35
2022-11-05T17:23:22.935Z,11.27
2022-11-05T17:25:56.305Z,11.27
2022-11-05T17:28:24.800Z,11.25
2022-11-05T17:30:53.257Z,11.20
2022-11-05T17:33:23.009Z,11.19
2022-11-05T17:35:53.126Z,11.09
2022-11-05T17:38:21.587Z,11.07
2022-11-05T17:40:49.448Z,11.09
2022-11-05T17:43:24.772Z,11.05
2022-11-05T17:46:03.097Z,10.96
2022-11-05T17:48:32.025Z,10.94
2022-11-05T17:50:59.777Z,10.96
2022-11-05T17:53:26.825Z,10.98
2022-11-05T17:55:55.286Z,10.93
2022-11-05T17:58:31.035Z,10.91
2022-11-05T18:00:59.218Z,10.88
2022-11-05T18:03:26.335Z,10.81
2022-11-05T18:05:54.035Z,10.87
2022-11-05T18:08:21.108Z,10.90
2022-11-05T18:10:49.534Z,10.87
2022-11-05T18:13:16.670Z,10.81
2022-11-05T18:15:44.761Z,10.87
2022-11-05T18:18:11.968Z,10.95
2022-11-05T18:24:07.228Z,10.95
2022-11-05T18:26:36.061Z,11.01
2022-11-05T18:29:06.820Z,11.00
2022-11-05T18:31:34.584Z,11.02
2022-11-05T18:34:01.910Z,11.00
2022-11-05T18:36:35.333Z,11.03
2022-11-05T18:39:07.368Z,11.03
2022-11-05T18:41:39.371Z,11.00
2022-11-05T18:44:08.263Z,11.05
2022-11-05T18:46:57.601Z,10.99
2022-11-05T18:49:29.520Z,11.04
2022-11-05T18:51:57.191Z,11.07
2022-11-05T18:54:26.955Z,11.03
2022-11-05T18:56:56.267Z,11.05
2022-11-05T18:59:37.744Z,11.06
2022-11-05T19:02:11.591Z,11.08
2022-11-05T19:04:50.527Z,11.00
2022-11-05T19:07:30.227Z,11.06
2022-11-05T19:12:55.065Z,11.00
2022-11-05T19:15:25.437Z,10.97
2022-11-05T19:17:57.206Z,11.02
2022-11-05T19:20:25.817Z,10.98
2022-11-05T19:22:55.612Z,11.05
2022-11-05T19:25:30.073Z,11.07
2022-11-05T19:27:58.697Z,11.03
2022-11-05T19:30:26.919Z,11.01
2022-11-05T19:32:54.218Z,11.01
2022-11-05T19:53:50.242Z,10.90
2022-11-05T20:14:56.070Z,10.82
2022-11-05T20:17:24.005Z,10.85
2022-11-05T20:20:03.520Z,10.85
2022-11-05T20:22:32.829Z,10.76
2022-11-05T20:24:59.893Z,10.80
2022-11-05T20:27:27.227Z,10.71
2022-11-05T20:29:55.524Z,10.74
2022-11-05T20:32:26.850Z,10.82
2022-11-05T20:34:54.711Z,10.77
2022-11-05T20:37:23.398Z,10.79
2022-11-05T20:39:50.433Z,10.75
2022-11-05T20:42:21.027Z,10.78
2022-11-05T20:44:50.373Z,10.76
2022-11-05T20:47:37.923Z,10.68
2022-11-05T20:50:18.138Z,10.71
2022-11-05T20:52:46.229Z,10.76
2022-11-05T20:55:14.022Z,10.75
2022-11-05T20:57:41.283Z,10.76
2022-11-05T21:00:10.214Z,10.72
2022-11-05T21:02:38.342Z,10.73
2022-11-05T21:05:09.634Z,10.75
2022-11-05T21:07:36.795Z,10.79
2022-11-05T21:10:05.554Z,10.76
2022-11-05T21:12:32.993Z,10.72
2022-11-05T21:15:00.508Z,10.71
2022-11-05T21:17:27.740Z,10.69
2022-11-05T21:19:56.176Z,10.71
2022-11-05T21:22:23.136Z,10.75
2022-11-05T21:24:50.825Z,10.74
2022-11-05T21:27:17.880Z,10.74
2022-11-05T21:29:45.273Z,10.73
2022-11-05T21:32:12.586Z,10.67
2022-11-05T21:34:39.884Z,10.70
2022-11-05T21:37:07.006Z,10.62
2022-11-05T21:39:34.979Z,10.64
2022-11-05T21:42:02.824Z,10.62
2022-11-05T21:44:30.178Z,10.58
2022-11-05T21:46:58.561Z,10.60
2022-11-05T21:52:33.732Z,10.63
2022-11-05T21:55:20.768Z,10.64
2022-11-05T21:58:06.526Z,10.63
2022-11-05T22:00:33.923Z,10.60
2022-11-05T22:03:01.091Z,10.61
2022-11-05T22:05:28.537Z,10.59
2022-11-05T22:07:56.174Z,10.57
2022-11-05T22:10:24.015Z,10.52
2022-11-05T22:12:51.084Z,10.57
2022-11-05T22:15:18.975Z,10.54
2022-11-05T22:17:56.606Z,10.56
2022-11-05T22:20:23.957Z,10.47
2022-11-05T22:22:51.182Z,10.53
2022-11-05T22:25:19.535Z,10.54
2022-11-05T22:27:47.771Z,10.54
2022-11-05T22:30:15.363Z,10.50
2022-11-05T22:32:42.955Z,10.51
2022-11-05T22:35:12.813Z,10.51
2022-11-05T22:37:41.296Z,10.55
2022-11-05T22:40:09.797Z,10.47
2022-11-05T22:42:37.361Z,10.57
2022-11-05T22:45:05.373Z,10.48
2022-11-05T22:47:33.305Z,10.52
2022-11-05T22:50:01.527Z,10.52
2022-11-05T22:52:28.677Z,10.45
2022-11-05T22:54:55.953Z,10.54
2022-11-05T22:57:22.961Z,10.53
2022-11-05T22:59:51.543Z,10.50
2022-11-05T23:02:18.687Z,10.53
2022-11-05T23:04:46.227Z,10.51
2022-11-05T23:07:31.826Z,10.54
2022-11-05T23:10:18.027Z,10.56
2022-11-05T23:12:45.045Z,10.54
2022-11-05T23:15:32.917Z,10.56
2022-11-05T23:18:18.464Z,10.54
2022-11-05T23:21:04.699Z,10.54
2022-11-05T23:23:50.522Z,10.57
2022-11-05T23:26:36.470Z,10.54
2022-11-05T23:29:06.898Z,10.57
2022-11-05T23:32:12.715Z,10.56
2022-11-05T23:34:39.796Z,10.51
2022-11-05T23:37:26.176Z,10.55
2022-11-05T23:39:53.562Z,10.52
2022-11-05T23:42:39.963Z,10.57
2022-11-05T23:45:26.635Z,10.55
2022-11-05T23:48:14.213Z,10.50
2022-11-05T23:50:42.985Z,10.50
2022-11-05T23:53:10.859Z,10.55
2022-11-05T23:55:39.894Z,10.52
2022-11-05T23:58:07.978Z,10.52
